Terminal Aerodrome Forecast
Issued by NWS

Current Version | Previous Version | Text Only | Print | Product List | Glossary On
Versions: 1 2 3 4 5 6 7 8 9 10 11 12 13 14 15 16 17 18 19 20 21 22 23
000
FTUS44 KMOB 211731
TAFBFM
TAF
KBFM 211731Z 2118/2218 10010KT P6SM BKN025 BKN035 OVC070
     FM220300 10008KT P6SM SCT025 BKN050
     FM221500 12012KT P6SM SCT025 OVC050 PROB30 2215/2218 P6SM TS
      BKN020CB=

USA.gov is the U.S. government's official web portal to all federal, state and local government web resources and services.